首页
METAR-TAF:

METAR-TAF

机场 :

派克维尔, 肯塔基州, 美国

纬度: 37-33-42N, 经度: 082-33-59W, 海拔: 449米

当前天气观测

该预报发布于11分钟前的01:55 UTC
风速3节,风向东南
温度 4°C
湿度 75%
气压 1025 hPa
能見度: 16.1公里
天空无云

METAR: KPBX 220155Z AUTO 13003KT 10SM CLR 04/00 A3027 RMK AO2 T00380000

时间: 22:06 (02:06 UTC)


TAF: 丢失

超过4000个机场的气象观测和天气预报(METAR&TAF报告)。

可查询的气象台以黄色和红色小点在地图上表示。

将鼠标移到小点上方,可查看气象台名称。

然后点击查看天气观测和预报。

如需切换地图:点击带黑十字的绿色按钮放大地图;点击带横线的绿色按钮缩小地图;或者点击绿色箭头查看邻近地区的地图。


METAR-TAF: